createdAt,value
2022-12-01T00:02:30.190Z,5.26
2022-12-01T00:07:33.442Z,6.07
2022-12-01T00:12:36.547Z,4.74
2022-12-01T00:17:39.620Z,5.53
2022-12-01T00:22:44.269Z,6.17
2022-12-01T00:27:52.289Z,4.74
2022-12-01T00:32:55.396Z,6.02
2022-12-01T00:37:58.405Z,4.58
2022-12-01T00:43:01.416Z,5.83
2022-12-01T00:48:04.826Z,5.52
2022-12-01T00:53:07.836Z,4.64
2022-12-01T00:58:11.862Z,6.30
2022-12-01T01:03:14.869Z,6.44
2022-12-01T01:08:17.874Z,4.71
2022-12-01T01:13:20.785Z,5.83
2022-12-01T01:18:23.787Z,6.04
2022-12-01T01:23:27.306Z,4.40
2022-12-01T01:28:31.742Z,5.28
2022-12-01T01:33:34.854Z,6.12
2022-12-01T01:38:37.960Z,4.60
2022-12-01T01:43:40.967Z,5.52
2022-12-01T01:48:48.423Z,5.51
2022-12-01T01:53:54.508Z,4.67
2022-12-01T01:58:58.434Z,5.74
2022-12-01T02:04:01.576Z,5.37
2022-12-01T02:09:04.501Z,4.82
2022-12-01T02:14:26.345Z,6.28
2022-12-01T02:19:44.304Z,4.90
2022-12-01T02:25:02.361Z,4.07
2022-12-01T02:30:05.375Z,6.16
2022-12-01T02:35:49.437Z,5.57
2022-12-01T02:41:20.295Z,4.16
2022-12-01T02:46:23.276Z,6.32
2022-12-01T02:51:32.318Z,5.94
2022-12-01T02:56:35.255Z,4.26
2022-12-01T03:01:56.801Z,4.68
2022-12-01T03:07:37.820Z,6.28
2022-12-01T03:12:49.682Z,4.48
2022-12-01T03:18:24.539Z,4.90
2022-12-01T03:23:31.503Z,6.26
2022-12-01T03:28:39.249Z,4.28
2022-12-01T03:34:37.970Z,4.90
2022-12-01T03:39:44.072Z,6.77
2022-12-01T03:44:57.085Z,4.82
2022-12-01T03:50:00.931Z,6.18
2022-12-01T03:55:16.311Z,6.66
2022-12-01T04:00:20.461Z,5.10
2022-12-01T04:05:25.464Z,6.97
2022-12-01T04:10:28.705Z,5.32
2022-12-01T04:15:31.718Z,5.19
2022-12-01T04:20:34.722Z,7.23
2022-12-01T04:25:37.627Z,5.49
2022-12-01T04:30:40.633Z,6.17
2022-12-01T04:35:43.641Z,6.72
2022-12-01T04:40:46.849Z,5.43
2022-12-01T04:45:49.961Z,6.89
2022-12-01T04:50:52.963Z,5.92
2022-12-01T04:55:56.070Z,5.94
2022-12-01T05:01:04.091Z,7.17
2022-12-01T05:06:11.382Z,5.60
2022-12-01T05:11:14.927Z,6.41
2022-12-01T05:16:30.124Z,7.24
2022-12-01T05:21:33.121Z,5.48
2022-12-01T05:26:36.225Z,6.70
2022-12-01T05:31:39.985Z,6.90
2022-12-01T05:36:43.058Z,5.91
2022-12-01T05:41:45.960Z,7.39
2022-12-01T05:46:49.072Z,6.25
2022-12-01T05:51:52.281Z,5.55
2022-12-01T05:56:55.287Z,7.27
2022-12-01T06:01:58.488Z,7.12
2022-12-01T06:07:01.620Z,5.21
2022-12-01T06:12:04.824Z,6.48
2022-12-01T06:17:07.929Z,7.76
2022-12-01T06:22:11.241Z,7.16
2022-12-01T06:27:14.348Z,5.46
2022-12-01T06:32:17.866Z,6.63
2022-12-01T06:37:21.077Z,7.65
2022-12-01T06:42:24.085Z,5.88
2022-12-01T06:47:27.601Z,5.62
2022-12-01T06:52:30.506Z,7.41
2022-12-01T06:57:33.513Z,7.48
2022-12-01T07:02:36.676Z,5.53
2022-12-01T07:07:40.300Z,6.15
2022-12-01T07:12:43.351Z,7.86
2022-12-01T07:17:46.256Z,7.40
2022-12-01T07:22:49.465Z,5.37
2022-12-01T07:27:52.369Z,6.69
2022-12-01T07:32:55.380Z,7.85
2022-12-01T07:37:58.488Z,6.43
2022-12-01T07:43:01.490Z,5.90
2022-12-01T07:48:04.603Z,7.55
2022-12-01T07:53:07.502Z,7.22
2022-12-01T07:58:10.408Z,5.31
2022-12-01T08:03:13.658Z,5.69
2022-12-01T08:08:16.652Z,7.57
2022-12-01T08:13:20.925Z,8.03
2022-12-01T08:18:24.687Z,6.15
2022-12-01T08:23:27.799Z,6.53
2022-12-01T08:28:31.827Z,7.91
2022-12-01T08:33:35.038Z,7.37
2022-12-01T08:38:38.352Z,6.26
2022-12-01T08:44:00.415Z,7.86
2022-12-01T08:49:06.344Z,7.46
2022-12-01T08:54:11.222Z,6.40
2022-12-01T08:59:14.340Z,7.70
2022-12-01T09:04:22.367Z,7.36
2022-12-01T09:09:28.597Z,6.09
2022-12-01T09:14:31.647Z,7.62
2022-12-01T09:19:35.554Z,7.78
2022-12-01T09:24:38.791Z,6.30
2022-12-01T09:29:41.902Z,7.75
2022-12-01T09:34:45.111Z,6.81
2022-12-01T09:39:48.463Z,6.02
2022-12-01T09:44:54.611Z,7.54
2022-12-01T09:50:16.657Z,7.39
2022-12-01T09:55:23.328Z,6.59
2022-12-01T10:00:31.909Z,8.03
2022-12-01T10:11:40.203Z,6.89
2022-12-01T10:16:55.811Z,7.69
2022-12-01T10:22:13.917Z,5.83
2022-12-01T10:27:16.820Z,6.83
2022-12-01T10:32:26.433Z,8.02
2022-12-01T10:37:30.952Z,6.61
2022-12-01T10:42:41.327Z,7.43
2022-12-01T10:48:09.449Z,7.52
2022-12-01T10:53:32.415Z,6.28
2022-12-01T10:58:49.918Z,7.55
2022-12-01T11:04:42.691Z,7.23
2022-12-01T11:09:48.688Z,7.27
2022-12-01T11:14:54.645Z,7.95
2022-12-01T11:19:57.789Z,6.53
2022-12-01T11:25:05.675Z,7.55
2022-12-01T11:30:21.483Z,7.57
2022-12-01T11:35:32.168Z,6.88
2022-12-01T11:40:56.340Z,7.73
2022-12-01T11:46:07.692Z,7.08
2022-12-01T11:51:20.140Z,6.33
2022-12-01T11:56:28.801Z,7.66
2022-12-01T12:01:40.857Z,7.57
2022-12-01T12:07:01.476Z,6.25
2022-12-01T12:12:10.422Z,7.20
2022-12-01T12:17:28.242Z,7.78
2022-12-01T12:22:40.397Z,6.33
2022-12-01T12:28:03.275Z,7.24
2022-12-01T12:33:42.639Z,7.74
2022-12-01T12:39:01.301Z,6.36
2022-12-01T12:44:25.707Z,7.01
2022-12-01T12:49:44.392Z,7.85
2022-12-01T12:54:51.797Z,6.12
2022-12-01T13:00:03.608Z,7.06
2022-12-01T13:05:18.925Z,7.60
2022-12-01T13:10:43.410Z,6.21
2022-12-01T13:15:50.690Z,7.44
2022-12-01T13:20:55.979Z,7.18
2022-12-01T13:26:01.749Z,6.29
2022-12-01T13:31:11.345Z,7.54
2022-12-01T13:41:39.704Z,6.02
2022-12-01T13:46:42.998Z,7.04
2022-12-01T13:52:23.369Z,7.94
2022-12-01T13:57:29.428Z,6.23
2022-12-01T14:02:35.176Z,6.42
2022-12-01T14:07:39.054Z,7.23
2022-12-01T14:12:46.030Z,7.55
2022-12-01T14:18:00.695Z,7.68
2022-12-01T14:23:24.795Z,7.65
2022-12-01T14:28:56.045Z,6.32
2022-12-01T14:34:01.634Z,6.84
2022-12-01T14:39:13.265Z,7.69
2022-12-01T14:44:36.152Z,7.21
2022-12-01T14:49:57.653Z,6.37
2022-12-01T14:55:07.321Z,7.18
2022-12-01T15:00:16.615Z,6.09
2022-12-01T15:05:27.481Z,7.08
2022-12-01T15:10:35.458Z,7.35
2022-12-01T15:15:53.449Z,6.78
2022-12-01T15:21:02.053Z,6.37
2022-12-01T15:26:05.361Z,7.04
2022-12-01T15:31:12.954Z,6.03
2022-12-01T15:36:16.557Z,7.14
2022-12-01T15:41:29.936Z,5.49
2022-12-01T15:46:34.746Z,6.63
2022-12-01T15:51:37.939Z,7.01
2022-12-01T15:56:41.869Z,5.53
2022-12-01T16:01:45.658Z,6.82
2022-12-01T16:07:10.203Z,6.76
2022-12-01T16:12:22.219Z,5.66
2022-12-01T16:17:26.431Z,7.08
2022-12-01T16:22:29.563Z,5.56
2022-12-01T16:27:32.778Z,6.15
2022-12-01T16:32:43.995Z,6.54
2022-12-01T16:37:47.194Z,5.34
2022-12-01T16:42:50.601Z,6.49
2022-12-01T16:47:53.619Z,5.21
2022-12-01T16:52:56.723Z,6.27
2022-12-01T16:57:59.830Z,5.05
2022-12-01T17:03:04.579Z,5.69
2022-12-01T17:08:07.735Z,5.92
2022-12-01T17:13:11.860Z,4.91
2022-12-01T17:18:17.072Z,6.40
2022-12-01T17:23:20.176Z,5.36
2022-12-01T17:28:23.289Z,5.27
2022-12-01T17:33:26.295Z,6.32
2022-12-01T17:38:29.527Z,4.70
2022-12-01T17:43:34.766Z,5.81
2022-12-01T17:48:40.640Z,5.92
2022-12-01T17:53:43.644Z,4.72
2022-12-01T17:58:49.473Z,6.16
2022-12-01T18:03:53.038Z,6.09
2022-12-01T18:08:57.620Z,4.61
2022-12-01T18:14:01.530Z,5.93
2022-12-01T18:19:04.726Z,6.54
2022-12-01T18:24:12.025Z,4.82
2022-12-01T18:29:25.905Z,5.67
2022-12-01T18:34:32.034Z,5.95
2022-12-01T18:39:35.080Z,4.55
2022-12-01T18:44:39.106Z,5.74
2022-12-01T18:49:42.310Z,4.54
2022-12-01T18:54:45.419Z,4.59
2022-12-01T18:59:48.543Z,5.10
2022-12-01T19:04:51.841Z,4.00
2022-12-01T19:09:55.164Z,5.25
2022-12-01T19:14:58.463Z,3.65
2022-12-01T19:20:01.783Z,4.36
2022-12-01T19:25:05.742Z,4.68
2022-12-01T19:30:09.362Z,3.21
2022-12-01T19:35:12.651Z,4.60
2022-12-01T19:40:15.877Z,3.67
2022-12-01T19:45:19.073Z,3.29
2022-12-01T19:50:22.085Z,4.24
2022-12-01T19:55:25.394Z,3.04
2022-12-01T20:00:28.609Z,4.45
2022-12-01T20:05:32.819Z,4.44
2022-12-01T20:10:35.843Z,3.09
2022-12-01T20:15:39.071Z,4.40
2022-12-01T20:20:42.367Z,3.14
2022-12-01T20:25:45.269Z,3.23
2022-12-01T20:30:48.282Z,4.12
2022-12-01T20:35:51.801Z,2.71
2022-12-01T20:40:55.243Z,4.37
2022-12-01T20:45:58.280Z,3.47
2022-12-01T20:51:03.894Z,2.40
2022-12-01T20:56:10.038Z,4.69
2022-12-01T21:01:16.475Z,3.32
2022-12-01T21:06:20.588Z,3.12
2022-12-01T21:11:47.865Z,4.22
2022-12-01T21:16:55.331Z,2.73
2022-12-01T21:21:59.040Z,4.74
2022-12-01T21:27:13.165Z,3.46
2022-12-01T21:32:19.957Z,3.04
2022-12-01T21:37:25.112Z,4.86
2022-12-01T21:42:31.715Z,3.26
2022-12-01T21:47:35.076Z,2.02
2022-12-01T21:52:42.019Z,4.49
2022-12-01T21:57:47.298Z,4.05
2022-12-01T22:02:52.529Z,2.16
2022-12-01T22:08:10.022Z,2.77
2022-12-01T22:13:13.199Z,4.33
2022-12-01T22:18:25.504Z,2.42
2022-12-01T22:23:34.062Z,2.04
2022-12-01T22:28:37.169Z,5.34
2022-12-01T22:33:40.174Z,3.43
2022-12-01T22:38:43.481Z,2.03
2022-12-01T22:43:49.565Z,3.52
2022-12-01T22:49:01.171Z,4.50
2022-12-01T22:54:10.323Z,2.43
2022-12-01T22:59:15.324Z,2.06
2022-12-01T23:04:29.745Z,4.16
2022-12-01T23:09:40.546Z,3.19
2022-12-01T23:14:46.612Z,1.52
2022-12-01T23:19:52.441Z,2.22
2022-12-01T23:24:55.391Z,3.60
2022-12-01T23:29:59.225Z,2.07
2022-12-01T23:35:02.669Z,0.97
2022-12-01T23:40:20.691Z,3.19
2022-12-01T23:45:26.001Z,2.82
2022-12-01T23:50:30.755Z,1.63
2022-12-01T23:55:34.522Z,3.87
